Time;durP1;ratioP1;P1;durP2;ratioP2;P2;SDS_P1;SDS_P2;PMS_P1;PMS_P2;Temp;Humidity;BMP_temperature;BMP_pressure;BME280_temperature;BME280_humidity;BME280_pressure;Samples;Min_cycle;Max_cycle;Signal;HPM_P1;HPM_P2
2024/02/10 00:02:34;;;;;;;6.30;2.40;;;;;11.10;97955.00;;;;10438173;28;20229;-82
2024/02/10 00:07:36;;;;;;;5.33;1.90;;;;;11.10;97953.00;;;;10427833;28;20307;-83
2024/02/10 00:12:40;;;;;;;2.43;1.77;;;;;11.00;97953.00;;;;10427080;28;20953;-82
2024/02/10 00:17:42;;;;;;;4.30;2.03;;;;;11.00;97950.00;;;;10396795;28;20240;-82
2024/02/10 00:22:46;;;;;;;3.93;1.63;;;;;11.00;97952.00;;;;10431398;28;20677;-83
2024/02/10 00:27:50;;;;;;;2.47;1.77;;;;;11.00;97955.00;;;;10423828;28;20754;-83
2024/02/10 00:32:52;;;;;;;6.17;1.93;;;;;10.90;97958.00;;;;10451161;28;20210;-83
2024/02/10 00:37:56;;;;;;;5.47;2.13;;;;;10.90;97952.00;;;;10461310;28;20341;-83
2024/02/10 00:42:58;;;;;;;3.47;1.90;;;;;10.80;97946.00;;;;10450207;28;20866;-83
2024/02/10 00:48:02;;;;;;;4.53;2.10;;;;;10.80;97947.00;;;;10429624;28;20226;-84
2024/02/10 00:53:04;;;;;;;6.20;2.17;;;;;10.80;97947.00;;;;10449606;28;20324;-84
2024/02/10 00:58:06;;;;;;;4.97;1.80;;;;;10.80;97942.00;;;;10426830;28;20316;-84
2024/02/10 01:03:08;;;;;;;2.67;2.03;;;;;10.60;97943.00;;;;10429189;28;20232;-84
2024/02/10 01:08:11;;;;;;;2.53;1.70;;;;;10.50;97939.00;;;;10439182;28;20956;-84
2024/02/10 01:13:13;;;;;;;5.20;1.87;;;;;10.50;97948.00;;;;10423667;28;20275;-84
2024/02/10 01:18:15;;;;;;;7.33;2.00;;;;;10.50;97957.00;;;;10451556;28;20240;-83
2024/02/10 01:23:17;;;;;;;3.73;1.50;;;;;10.40;97947.00;;;;10446781;28;20234;-84
2024/02/10 01:28:21;;;;;;;3.73;2.00;;;;;10.20;97946.00;;;;10447343;28;20225;-84
2024/02/10 01:33:24;;;;;;;4.50;2.10;;;;;10.10;97941.00;;;;10443518;28;20224;-83
2024/02/10 01:38:26;;;;;;;5.93;2.10;;;;;10.00;97934.00;;;;10443315;28;20271;-83
2024/02/10 01:43:28;;;;;;;2.60;1.90;;;;;9.90;97932.00;;;;10449932;28;20289;-83
2024/02/10 01:48:30;;;;;;;4.93;1.87;;;;;9.90;97938.00;;;;10425036;28;20915;-83
2024/02/10 01:53:32;;;;;;;4.30;2.00;;;;;9.90;97930.00;;;;10437396;28;20248;-84
2024/02/10 01:58:35;;;;;;;3.67;1.80;;;;;9.90;97934.00;;;;10428783;28;20222;-83
2024/02/10 02:03:43;;;;;;;3.67;2.30;;;;;9.70;97932.00;;;;10424529;28;20210;-83
2024/02/10 02:08:51;;;;;;;4.60;2.23;;;;;9.70;97928.00;;;;10439735;28;20248;-83
2024/02/10 02:13:53;;;;;;;5.50;1.80;;;;;9.70;97941.00;;;;10432906;28;20256;-83
2024/02/10 02:18:57;;;;;;;3.03;2.00;;;;;9.70;97934.00;;;;10440690;28;20221;-82
2024/02/10 02:23:59;;;;;;;4.03;2.10;;;;;9.60;97926.00;;;;10440119;28;20259;-83
2024/02/10 02:29:01;;;;;;;2.33;1.70;;;;;9.50;97928.00;;;;10440562;28;20217;-83
2024/02/10 02:34:04;;;;;;;4.73;2.63;;;;;9.50;97928.00;;;;10427385;28;20225;-82
2024/02/10 02:39:08;;;;;;;2.50;1.53;;;;;9.40;97927.00;;;;10409522;28;20221;-83
2024/02/10 02:44:14;;;;;;;3.43;1.97;;;;;9.40;97919.00;;;;10413609;28;20249;-83
2024/02/10 02:49:16;;;;;;;4.00;1.90;;;;;9.40;97918.00;;;;10430534;28;20258;-83
2024/02/10 02:54:18;;;;;;;2.47;1.53;;;;;9.30;97924.00;;;;10439721;28;20317;-82
2024/02/10 02:59:20;;;;;;;3.60;2.17;;;;;9.30;97919.00;;;;10430491;28;20283;-83
2024/02/10 03:04:22;;;;;;;5.13;2.00;;;;;9.20;97924.00;;;;10435450;28;20292;-82
2024/02/10 03:09:25;;;;;;;3.30;1.97;;;;;9.10;97916.00;;;;10440752;28;20304;-83
2024/02/10 03:14:28;;;;;;;4.53;1.80;;;;;9.10;97913.00;;;;10420235;28;20680;-82
2024/02/10 03:19:30;;;;;;;8.80;2.13;;;;;9.10;97912.00;;;;10444961;28;20221;-82
2024/02/10 03:24:33;;;;;;;2.90;1.60;;;;;9.10;97916.00;;;;10417919;28;20296;-82
2024/02/10 03:29:35;;;;;;;6.30;1.77;;;;;9.10;97910.00;;;;10434822;28;20225;-82
2024/02/10 03:34:37;;;;;;;3.20;1.57;;;;;9.10;97908.00;;;;10414212;28;20299;-82
2024/02/10 03:39:39;;;;;;;3.40;2.07;;;;;9.10;97908.00;;;;10445252;28;20226;-82
2024/02/10 03:44:41;;;;;;;6.63;2.43;;;;;9.00;97910.00;;;;10448526;28;20865;-82
2024/02/10 03:49:46;;;;;;;4.30;2.17;;;;;8.90;97916.00;;;;10425561;28;20252;-82
2024/02/10 03:54:51;;;;;;;6.10;2.27;;;;;8.80;97916.00;;;;10416615;28;21479;-82
2024/02/10 03:59:55;;;;;;;2.90;1.80;;;;;8.70;97924.00;;;;10430511;28;20225;-82
2024/02/10 04:04:58;;;;;;;5.70;2.37;;;;;8.60;97919.00;;;;10437118;28;20264;-82
2024/02/10 04:10:00;;;;;;;3.70;2.33;;;;;8.60;97902.00;;;;10452708;28;20237;-82
2024/02/10 04:15:04;;;;;;;7.73;2.20;;;;;8.60;97910.00;;;;10404505;28;20229;-82
2024/02/10 04:20:07;;;;;;;6.13;2.43;;;;;8.80;97917.00;;;;10435245;28;20248;-81
2024/02/10 04:25:09;;;;;;;3.13;2.00;;;;;8.90;97920.00;;;;10427406;28;20222;-82
2024/02/10 04:30:11;;;;;;;6.13;2.70;;;;;8.80;97925.00;;;;10437445;28;20205;-83
2024/02/10 04:35:14;;;;;;;5.40;2.27;;;;;8.70;97929.00;;;;10426985;28;20317;-82
2024/02/10 04:40:17;;;;;;;8.07;2.33;;;;;8.80;97929.00;;;;10423018;28;20651;-82
2024/02/10 04:45:28;;;;;;;6.43;2.67;;;;;8.90;97926.00;;;;10443185;28;20780;-82
2024/02/10 04:50:30;;;;;;;8.07;2.80;;;;;9.00;97933.00;;;;10417735;28;20229;-82
2024/02/10 04:55:33;;;;;;;5.00;2.77;;;;;9.10;97932.00;;;;10458710;28;20228;-83
2024/02/10 05:00:35;;;;;;;4.43;2.80;;;;;9.20;97946.00;;;;10426719;28;20298;-82
2024/02/10 05:05:36;;;;;;;5.53;4.20;;;;;9.20;97943.00;;;;10416337;28;20763;-82
2024/02/10 05:10:40;;;;;;;6.10;3.07;;;;;9.30;97948.00;;;;10426172;28;20569;-81
2024/02/10 05:15:42;;;;;;;6.97;2.40;;;;;9.30;97948.00;;;;10425698;28;20232;-83
2024/02/10 05:20:43;;;;;;;4.27;2.53;;;;;9.30;97944.00;;;;10445151;28;20225;-81
2024/02/10 05:25:45;;;;;;;4.63;2.53;;;;;9.30;97937.00;;;;10421936;28;20225;-81
2024/02/10 05:30:47;;;;;;;7.83;2.60;;;;;9.30;97930.00;;;;10447448;28;20221;-82
2024/02/10 05:35:49;;;;;;;5.37;2.67;;;;;9.30;97924.00;;;;10427016;28;20318;-81
2024/02/10 05:40:51;;;;;;;4.57;2.73;;;;;9.30;97925.00;;;;10448330;28;20249;-81
2024/02/10 05:45:53;;;;;;;4.23;2.70;;;;;9.30;97921.00;;;;10430402;28;20225;-81
2024/02/10 05:50:55;;;;;;;6.87;2.40;;;;;9.30;97932.00;;;;10430515;28;20790;-81
2024/02/10 05:55:57;;;;;;;5.07;2.77;;;;;9.30;97937.00;;;;10441811;28;20907;-81
2024/02/10 06:00:59;;;;;;;4.40;2.27;;;;;9.30;97945.00;;;;10431452;28;20233;-80
2024/02/10 06:06:05;;;;;;;4.13;2.63;;;;;9.30;97944.00;;;;10427649;28;20760;-81
2024/02/10 06:11:07;;;;;;;2.33;2.10;;;;;9.20;97949.00;;;;10435650;28;20217;-81
2024/02/10 06:16:10;;;;;;;3.43;2.07;;;;;9.10;97956.00;;;;10443373;28;20253;-81
2024/02/10 06:21:11;;;;;;;4.87;2.53;;;;;9.00;97954.00;;;;10427986;28;20297;-81
2024/02/10 06:26:13;;;;;;;4.03;2.60;;;;;8.90;97957.00;;;;10428475;28;20225;-81
2024/02/10 06:31:18;;;;;;;6.07;2.40;;;;;8.90;97950.00;;;;10442277;28;20228;-81
2024/02/10 06:36:20;;;;;;;5.57;3.00;;;;;8.90;97956.00;;;;10418105;28;20229;-81
2024/02/10 06:41:25;;;;;;;4.53;2.60;;;;;8.90;97961.00;;;;10413989;28;20283;-80
2024/02/10 06:46:27;;;;;;;3.13;2.47;;;;;8.90;97962.00;;;;10445645;28;20228;-81
2024/02/10 06:51:29;;;;;;;4.27;3.07;;;;;9.00;97969.00;;;;10429071;28;20297;-80
2024/02/10 06:56:32;;;;;;;7.07;3.37;;;;;9.00;97974.00;;;;10445604;28;20304;-81
2024/02/10 07:01:34;;;;;;;4.80;3.53;;;;;9.00;97986.00;;;;10443218;28;20225;-81
2024/02/10 07:06:36;;;;;;;6.93;3.67;;;;;9.00;98001.00;;;;10408844;28;20236;-81
2024/02/10 07:11:38;;;;;;;5.60;3.50;;;;;9.00;97997.00;;;;10421866;28;20305;-81
2024/02/10 07:16:40;;;;;;;8.47;3.27;;;;;9.10;98003.00;;;;10413161;28;20292;-80
2024/02/10 07:21:45;;;;;;;4.97;3.50;;;;;9.20;98007.00;;;;10428699;28;20225;-81
2024/02/10 07:26:47;;;;;;;4.00;3.03;;;;;9.40;98018.00;;;;10444281;28;20221;-81
2024/02/10 07:31:50;;;;;;;6.53;3.70;;;;;9.50;98013.00;;;;10418001;28;20687;-80
2024/02/10 07:36:55;;;;;;;5.50;3.40;;;;;9.60;98016.00;;;;10459427;28;20236;-81
2024/02/10 07:42:01;;;;;;;5.47;3.80;;;;;9.70;98018.00;;;;10429909;28;20221;-81
2024/02/10 07:47:03;;;;;;;4.97;2.97;;;;;9.90;98024.00;;;;10428262;28;20304;-83
2024/02/10 07:52:05;;;;;;;6.57;3.30;;;;;10.10;98037.00;;;;10427680;28;20946;-81
2024/02/10 07:57:11;;;;;;;4.83;2.73;;;;;10.20;98038.00;;;;10424058;28;20221;-82
2024/02/10 08:02:16;;;;;;;7.10;3.50;;;;;10.40;98037.00;;;;10431273;28;20312;-82
2024/02/10 08:07:21;;;;;;;4.60;3.23;;;;;10.60;98042.00;;;;10431058;28;20288;-82
2024/02/10 08:12:24;;;;;;;6.17;3.60;;;;;10.80;98045.00;;;;10434669;28;20222;-83
2024/02/10 08:17:30;;;;;;;5.83;3.10;;;;;10.90;98054.00;;;;10430903;28;20861;-83
2024/02/10 08:22:35;;;;;;;3.87;3.47;;;;;10.90;98053.00;;;;10429559;28;20255;-83
2024/02/10 08:27:39;;;;;;;4.97;4.00;;;;;11.10;98064.00;;;;10439125;28;20264;-83
2024/02/10 08:32:41;;;;;;;9.17;3.87;;;;;11.30;98061.00;;;;10425871;28;20800;-82
2024/02/10 08:37:43;;;;;;;6.07;3.50;;;;;11.50;98056.00;;;;10427621;28;20224;-82
2024/02/10 08:42:47;;;;;;;6.27;3.93;;;;;11.50;98055.00;;;;10427192;28;20252;-83
2024/02/10 08:47:49;;;;;;;9.40;4.40;;;;;11.60;98062.00;;;;10432903;28;20245;-83
2024/02/10 08:52:56;;;;;;;5.70;4.10;;;;;11.70;98052.00;;;;10427980;28;20222;-83
2024/02/10 08:58:04;;;;;;;5.63;3.57;;;;;11.80;98055.00;;;;10445259;28;20218;-81
2024/02/10 09:03:06;;;;;;;5.63;3.17;;;;;12.00;98052.00;;;;10448722;28;20321;-81
2024/02/10 09:08:08;;;;;;;5.55;3.50;;;;;12.10;98066.00;;;;10428462;28;20960;-81
2024/02/10 09:13:12;;;;;;;5.80;3.47;;;;;12.30;98065.00;;;;10459731;28;20925;-81
2024/02/10 09:18:14;;;;;;;6.85;3.10;;;;;12.40;98068.00;;;;10442473;28;20237;-81
2024/02/10 09:23:16;;;;;;;5.57;3.22;;;;;12.50;98075.00;;;;10443844;28;20247;-81
2024/02/10 09:28:18;;;;;;;5.38;2.90;;;;;12.60;98076.00;;;;10430686;28;20230;-82
2024/02/10 09:33:22;;;;;;;5.60;2.90;;;;;12.90;98076.00;;;;10481281;28;20259;-82
2024/02/10 09:38:26;;;;;;;4.47;3.08;;;;;13.00;98081.00;;;;10449047;28;20224;-82
2024/02/10 09:43:31;;;;;;;6.75;3.00;;;;;13.00;98081.00;;;;10443702;28;20244;-82
2024/02/10 09:48:47;;;;;;;6.93;3.20;;;;;13.00;98068.00;;;;10435551;28;20249;-82
2024/02/10 09:53:49;;;;;;;6.60;3.40;;;;;13.10;98082.00;;;;10443349;28;20845;-80
2024/02/10 09:58:53;;;;;;;5.13;3.08;;;;;13.10;98076.00;;;;10432730;28;20221;-81
2024/02/10 10:03:55;;;;;;;4.65;3.13;;;;;13.20;98066.00;;;;10426152;28;20870;-84
2024/02/10 10:09:00;;;;;;;6.05;2.88;;;;;13.30;98067.00;;;;10427011;28;20287;-83
2024/02/10 10:14:04;;;;;;;7.20;3.47;;;;;13.50;98063.00;;;;10448907;28;20226;-84
2024/02/10 10:19:07;;;;;;;5.68;2.88;;;;;13.70;98065.00;;;;10428683;28;20215;-83
2024/02/10 10:24:15;;;;;;;5.18;3.17;;;;;14.00;98059.00;;;;10416512;28;20576;-83
2024/02/10 10:29:19;;;;;;;7.72;3.20;;;;;14.10;98052.00;;;;10422624;28;20221;-83
2024/02/10 10:34:22;;;;;;;5.68;2.80;;;;;14.20;98052.00;;;;10422306;28;20320;-83
2024/02/10 10:39:26;;;;;;;3.83;2.80;;;;;14.30;98049.00;;;;10418376;28;20253;-83
2024/02/10 10:44:29;;;;;;;3.58;2.65;;;;;14.30;98051.00;;;;10455314;28;20489;-84
2024/02/10 10:49:32;;;;;;;5.88;2.90;;;;;14.40;98055.00;;;;10421927;28;20304;-83
2024/02/10 10:54:38;;;;;;;4.20;2.70;;;;;14.50;98060.00;;;;10437701;28;20859;-83
2024/02/10 10:59:58;;;;;;;4.60;2.83;;;;;14.50;98056.00;;;;10436616;28;20588;-83
2024/02/10 11:05:03;;;;;;;3.22;2.92;;;;;14.50;98060.00;;;;10436276;28;20221;-83
2024/02/10 11:10:08;;;;;;;2.80;2.50;;;;;14.50;98058.00;;;;10437735;28;20572;-83
2024/02/10 11:15:20;;;;;;;3.10;2.30;;;;;14.50;98054.00;;;;10441062;28;20237;-80
2024/02/10 11:20:26;;;;;;;8.35;2.85;;;;;14.50;98060.00;;;;10455100;28;20311;-79
2024/02/10 11:25:32;;;;;;;3.47;2.50;;;;;14.60;98062.00;;;;10433848;28;20276;-81
2024/02/10 11:30:34;;;;;;;5.32;2.20;;;;;14.70;98061.00;;;;10423992;28;20909;-81
2024/02/10 11:35:37;;;;;;;3.42;2.28;;;;;14.80;98062.00;;;;10421559;28;20244;-81
2024/02/10 11:40:41;;;;;;;3.08;2.10;;;;;14.90;98049.00;;;;10443866;28;20223;-81
2024/02/10 11:45:43;;;;;;;2.63;1.92;;;;;15.00;98058.00;;;;10446290;28;20225;-82
2024/02/10 11:50:45;;;;;;;7.82;2.45;;;;;15.20;98053.00;;;;10435786;28;20808;-81
2024/02/10 11:56:05;;;;;;;2.92;2.10;;;;;15.40;98055.00;;;;10433509;28;20588;-82
2024/02/10 12:01:11;;;;;;;5.63;2.53;;;;;15.40;98054.00;;;;10427675;28;20221;-82
2024/02/10 12:06:15;;;;;;;3.30;2.38;;;;;15.30;98054.00;;;;10428737;28;20851;-82
2024/02/10 12:11:17;;;;;;;2.90;1.60;;;;;15.20;98048.00;;;;10441718;28;20225;-82
2024/02/10 12:16:18;;;;;;;2.67;1.80;;;;;15.30;98043.00;;;;10447149;28;20225;-81
2024/02/10 12:21:24;;;;;;;3.72;1.60;;;;;15.40;98039.00;;;;10423859;28;20221;-81
2024/02/10 12:26:28;;;;;;;2.05;1.85;;;;;15.50;98025.00;;;;10421447;28;20221;-81
2024/02/10 12:31:30;;;;;;;3.05;1.70;;;;;15.50;98017.00;;;;10426709;28;20633;-80
2024/02/10 12:36:33;;;;;;;2.78;1.83;;;;;15.60;98009.00;;;;10443192;28;20222;-80
2024/02/10 12:41:35;;;;;;;2.33;1.50;;;;;15.70;97997.00;;;;10440801;28;20224;-81
2024/02/10 12:46:38;;;;;;;3.03;1.60;;;;;15.60;98002.00;;;;10445427;28;20311;-81
2024/02/10 12:51:40;;;;;;;1.90;1.70;;;;;15.50;97996.00;;;;10454256;28;20621;-81
2024/02/10 12:56:42;;;;;;;2.75;1.60;;;;;15.40;97997.00;;;;10438085;28;20287;-81
2024/02/10 13:01:44;;;;;;;2.13;1.65;;;;;15.30;97997.00;;;;10418629;28;20224;-80
2024/02/10 13:06:47;;;;;;;2.63;1.60;;;;;15.20;97996.00;;;;10456586;28;20221;-82
2024/02/10 13:11:49;;;;;;;2.30;1.58;;;;;15.20;98010.00;;;;10456509;28;20217;-85
2024/02/10 13:16:51;;;;;;;3.28;1.60;;;;;15.00;98006.00;;;;10455509;28;20900;-82
2024/02/10 13:21:54;;;;;;;2.35;1.83;;;;;15.00;98001.00;;;;10458996;28;20227;-80
2024/02/10 13:26:56;;;;;;;2.65;1.80;;;;;15.00;98009.00;;;;10447651;28;20733;-81
2024/02/10 13:32:00;;;;;;;3.25;2.03;;;;;15.20;98010.00;;;;10437968;28;20271;-81
2024/02/10 14:03:13;;;;;;;4.40;3.15;;;;;15.70;97988.00;;;;10456643;28;20324;-83
2024/02/10 14:13:42;;;;;;;4.13;2.03;;;;;15.70;97976.00;;;;10441610;28;20213;-83
2024/02/10 14:18:44;;;;;;;4.40;2.38;;;;;15.50;97984.00;;;;10434039;28;20592;-82
2024/02/10 14:23:46;;;;;;;4.18;2.22;;;;;15.40;97976.00;;;;10455914;28;20221;-82
2024/02/10 14:28:55;;;;;;;2.85;1.95;;;;;15.50;97988.00;;;;10452012;28;20225;-84
2024/02/10 14:34:00;;;;;;;1.98;1.80;;;;;15.50;97986.00;;;;10422307;28;20286;-82
2024/02/10 14:39:15;;;;;;;2.35;1.92;;;;;15.20;97991.00;;;;10419681;28;20798;-81
2024/02/10 14:44:17;;;;;;;3.40;1.92;;;;;14.80;97990.00;;;;10429072;28;20239;-80
2024/02/10 14:49:21;;;;;;;2.72;1.90;;;;;14.50;97999.00;;;;10451093;28;20219;-82
2024/02/10 14:54:24;;;;;;;3.33;1.75;;;;;14.20;98011.00;;;;10455330;28;20787;-81
2024/02/10 14:59:29;;;;;;;3.60;2.00;;;;;14.00;98016.00;;;;10430032;28;20892;-81
2024/02/10 15:04:31;;;;;;;2.50;1.90;;;;;13.80;98027.00;;;;10440516;28;20233;-82
2024/02/10 15:09:33;;;;;;;2.08;1.60;;;;;13.50;98030.00;;;;10424953;28;20672;-82
2024/02/10 15:14:34;;;;;;;2.72;1.98;;;;;13.20;98026.00;;;;10425773;28;20764;-81
2024/02/10 15:19:36;;;;;;;2.38;2.17;;;;;13.10;98024.00;;;;10424806;28;20222;-82
2024/02/10 15:24:38;;;;;;;3.42;1.90;;;;;13.00;98017.00;;;;10409701;28;20221;-82
2024/02/10 15:29:40;;;;;;;2.60;1.80;;;;;12.80;98015.00;;;;10434621;28;20945;-81
2024/02/10 15:34:46;;;;;;;2.95;2.05;;;;;12.80;98003.00;;;;10434052;28;20221;-81
2024/02/10 15:39:58;;;;;;;3.58;2.22;;;;;12.70;98004.00;;;;10430621;28;20290;-82
2024/02/10 15:45:01;;;;;;;2.90;2.20;;;;;12.60;98014.00;;;;10438382;28;20221;-82
2024/02/10 15:50:03;;;;;;;3.90;2.08;;;;;12.50;98005.00;;;;10462734;28;20248;-82
2024/02/10 15:55:05;;;;;;;3.97;2.55;;;;;12.50;98014.00;;;;10421178;28;20212;-80
2024/02/10 16:00:11;;;;;;;3.63;3.00;;;;;12.40;98008.00;;;;10424366;28;20789;-82
2024/02/10 16:05:18;;;;;;;3.28;2.65;;;;;12.30;97993.00;;;;10423368;28;20221;-82
2024/02/10 16:10:22;;;;;;;3.47;2.83;;;;;12.20;97993.00;;;;10419348;28;20264;-79
2024/02/10 16:15:24;;;;;;;3.63;3.15;;;;;12.20;98000.00;;;;10416006;28;20225;-82
2024/02/10 16:20:27;;;;;;;5.18;3.35;;;;;12.10;98009.00;;;;10441494;28;20212;-82
2024/02/10 16:25:28;;;;;;;5.83;4.13;;;;;12.00;98001.00;;;;10428597;28;20287;-80
2024/02/10 16:30:32;;;;;;;5.83;4.27;;;;;12.00;98001.00;;;;10423098;28;20866;-79
2024/02/10 16:35:35;;;;;;;6.53;3.85;;;;;11.90;98000.00;;;;10418071;28;20217;-80
2024/02/10 16:40:37;;;;;;;4.78;4.28;;;;;11.90;98001.00;;;;10415792;28;20275;-81
2024/02/10 16:45:39;;;;;;;5.88;4.03;;;;;11.80;98003.00;;;;10425911;28;20744;-81
2024/02/10 16:50:40;;;;;;;4.82;4.32;;;;;11.70;98018.00;;;;10443233;28;20233;-83
2024/02/10 16:55:42;;;;;;;7.75;4.78;;;;;11.50;98017.00;;;;10407348;28;20310;-81
2024/02/10 17:00:44;;;;;;;7.37;5.00;;;;;11.40;98021.00;;;;10438125;28;20221;-81
2024/02/10 17:05:51;;;;;;;8.17;5.40;;;;;11.30;98021.00;;;;10436077;28;20222;-80
2024/02/10 17:10:54;;;;;;;7.87;4.93;;;;;11.20;98022.00;;;;10408300;28;20245;-80
2024/02/10 17:15:56;;;;;;;6.37;4.73;;;;;11.10;98027.00;;;;10414580;28;20225;-80
2024/02/10 17:21:00;;;;;;;5.43;4.87;;;;;11.00;98018.00;;;;10442771;28;20249;-81
2024/02/10 17:26:06;;;;;;;6.10;4.83;;;;;11.00;98022.00;;;;10422445;28;20764;-81
2024/02/10 17:31:14;;;;;;;7.20;4.77;;;;;10.90;98032.00;;;;10440055;28;20217;-84
2024/02/10 17:36:21;;;;;;;5.97;5.37;;;;;10.90;98028.00;;;;10451878;28;21205;-83
2024/02/10 17:41:24;;;;;;;5.93;5.33;;;;;10.80;98039.00;;;;10463919;28;20301;-83
2024/02/10 17:46:29;;;;;;;7.87;5.67;;;;;10.80;98038.00;;;;10430148;28;20291;-82
2024/02/10 17:51:31;;;;;;;7.67;5.93;;;;;10.80;98034.00;;;;10425110;28;20229;-82
2024/02/10 17:56:33;;;;;;;8.60;6.30;;;;;10.70;98041.00;;;;10423438;28;20310;-83
2024/02/10 18:01:35;;;;;;;7.43;6.47;;;;;10.70;98036.00;;;;10443927;28;20225;-83
2024/02/10 18:06:42;;;;;;;8.93;6.03;;;;;10.60;98048.00;;;;10424797;28;20222;-84
2024/02/10 18:11:44;;;;;;;9.73;6.73;;;;;10.60;98055.00;;;;10447671;28;20217;-84
2024/02/10 18:16:47;;;;;;;8.17;6.30;;;;;10.60;98055.00;;;;10433419;28;20221;-84
2024/02/10 18:21:53;;;;;;;8.00;6.63;;;;;10.60;98057.00;;;;10448449;28;20309;-83
2024/02/10 18:26:55;;;;;;;8.77;6.40;;;;;10.60;98060.00;;;;10446163;28;20308;-84
2024/02/10 18:31:57;;;;;;;8.97;6.50;;;;;10.50;98053.00;;;;10430206;28;20772;-83
2024/02/10 18:36:59;;;;;;;7.67;6.80;;;;;10.50;98053.00;;;;10426466;28;20224;-77
2024/02/10 18:42:01;;;;;;;8.10;6.33;;;;;10.50;98060.00;;;;10424662;28;20225;-78
2024/02/10 18:47:03;;;;;;;9.13;6.83;;;;;10.50;98056.00;;;;10433057;28;20222;-78
2024/02/10 18:52:07;;;;;;;12.03;7.97;;;;;10.50;98052.00;;;;10416998;28;20849;-79
2024/02/10 18:57:10;;;;;;;9.27;7.83;;;;;10.50;98054.00;;;;10428750;28;20312;-76
2024/02/10 19:02:16;;;;;;;11.50;7.67;;;;;10.50;98054.00;;;;10416301;28;20229;-75
2024/02/10 19:07:21;;;;;;;10.07;8.10;;;;;10.50;98045.00;;;;10429462;28;20236;-76
2024/02/10 19:12:23;;;;;;;9.37;7.83;;;;;10.40;98042.00;;;;10442000;28;20217;-77
2024/02/10 19:17:26;;;;;;;10.40;8.70;;;;;10.40;98038.00;;;;10426880;28;20217;-80
2024/02/10 19:22:28;;;;;;;11.13;8.77;;;;;10.40;98044.00;;;;10452800;28;20798;-77
2024/02/10 19:27:30;;;;;;;17.70;14.20;;;;;10.40;98048.00;;;;10443812;28;20789;-77
2024/02/10 19:32:32;;;;;;;14.27;12.07;;;;;10.40;98054.00;;;;10430299;28;20244;-77
2024/02/10 19:37:34;;;;;;;14.13;10.97;;;;;10.40;98040.00;;;;10417409;28;20237;-77
2024/02/10 19:42:36;;;;;;;12.77;11.33;;;;;10.30;98034.00;;;;10426231;28;20857;-77
2024/02/10 19:47:39;;;;;;;13.90;11.60;;;;;10.30;98040.00;;;;10432017;28;20220;-76
2024/02/10 19:52:41;;;;;;;17.93;13.10;;;;;10.30;98037.00;;;;10422698;28;20222;-77
2024/02/10 19:57:43;;;;;;;18.50;14.30;;;;;10.30;98036.00;;;;10421562;28;20674;-78
2024/02/10 20:02:45;;;;;;;17.03;13.40;;;;;10.30;98041.00;;;;10445138;28;20221;-79
2024/02/10 20:07:47;;;;;;;18.20;13.60;;;;;10.20;98044.00;;;;10412914;28;20355;-78
2024/02/10 20:12:49;;;;;;;20.40;14.23;;;;;10.20;98053.00;;;;10422683;28;20229;-78
2024/02/10 20:17:53;;;;;;;19.67;14.37;;;;;10.20;98042.00;;;;10440584;28;20229;-78
2024/02/10 20:22:55;;;;;;;21.73;14.87;;;;;10.20;98042.00;;;;10434117;28;20226;-80
2024/02/10 20:27:57;;;;;;;19.00;14.50;;;;;10.20;98043.00;;;;10426340;28;20244;-78
2024/02/10 20:32:59;;;;;;;21.20;14.70;;;;;10.20;98043.00;;;;10420055;28;20849;-79
2024/02/10 20:38:01;;;;;;;19.63;14.13;;;;;10.20;98042.00;;;;10440691;28;20306;-79
2024/02/10 20:43:03;;;;;;;16.70;13.83;;;;;10.20;98022.00;;;;10440203;28;20676;-80
2024/02/10 20:48:06;;;;;;;20.93;15.27;;;;;10.20;98036.00;;;;10444567;28;20223;-79
2024/02/10 20:53:09;;;;;;;22.43;15.77;;;;;10.20;98036.00;;;;10415003;28;20234;-77
2024/02/10 20:58:16;;;;;;;28.83;21.00;;;;;10.20;98046.00;;;;10433480;28;20638;-78
2024/02/10 21:03:22;;;;;;;21.33;16.33;;;;;10.20;98045.00;;;;10444263;28;20320;-77
2024/02/10 21:08:25;;;;;;;21.57;16.03;;;;;10.20;98049.00;;;;10457269;28;20205;-84
2024/02/10 21:13:27;;;;;;;19.93;15.27;;;;;10.10;98044.00;;;;10462530;28;20719;-84
2024/02/10 21:18:29;;;;;;;21.67;15.53;;;;;10.10;98041.00;;;;10488258;23;20753;-82
2024/02/10 21:23:34;;;;;;;25.07;16.13;;;;;10.10;98040.00;;;;10743046;23;20238;-84
2024/02/10 21:28:38;;;;;;;23.43;16.20;;;;;10.10;98034.00;;;;10417948;28;20256;-88
2024/02/10 21:33:41;;;;;;;22.53;16.37;;;;;10.10;98032.00;;;;10469262;23;20382;-87
2024/02/10 21:38:43;;;;;;;21.80;16.20;;;;;10.10;98042.00;;;;10471676;28;20218;-85
2024/02/10 21:43:45;;;;;;;23.20;16.10;;;;;10.10;98035.00;;;;10606772;23;20218;-83
2024/02/10 21:49:06;;;;;;;19.67;15.90;;;;;10.10;98034.00;;;;10722073;22;20222;31
2024/02/10 21:54:08;;;;;;;21.50;16.70;;;;;10.10;98037.00;;;;10198887;28;20301;-86
2024/02/10 21:59:11;;;;;;;24.63;15.73;;;;;10.10;98043.00;;;;10210683;28;20214;-81
2024/02/10 22:04:14;;;;;;;20.10;15.60;;;;;10.10;98045.00;;;;10212191;28;20268;-81
2024/02/10 22:09:16;;;;;;;26.67;16.40;;;;;10.10;98032.00;;;;10212148;28;20258;-83
2024/02/10 22:14:18;;;;;;;25.33;17.87;;;;;10.10;98032.00;;;;10360847;23;20499;-86
2024/02/10 22:19:21;;;;;;;19.10;14.60;;;;;10.00;98030.00;;;;10277741;28;20231;-86
2024/02/10 22:24:24;;;;;;;21.13;14.53;;;;;10.00;98041.00;;;;10291999;28;20232;-84
2024/02/10 22:29:27;;;;;;;19.90;14.63;;;;;10.00;98035.00;;;;10279450;28;20275;-86
2024/02/10 22:34:29;;;;;;;59.83;39.70;;;;;10.00;98032.00;;;;10302968;28;20323;-85
2024/02/10 22:39:38;;;;;;;22.23;16.23;;;;;10.00;98034.00;;;;10280176;28;20239;-83
2024/02/10 22:44:41;;;;;;;20.37;15.93;;;;;10.00;98038.00;;;;10264940;28;20216;-82
2024/02/10 22:49:47;;;;;;;19.80;15.10;;;;;10.00;98031.00;;;;10267884;28;20239;-81
2024/02/10 22:54:52;;;;;;;21.27;14.50;;;;;9.90;98039.00;;;;10259718;28;20679;-84
2024/02/10 22:59:54;;;;;;;15.47;12.43;;;;;9.90;98035.00;;;;10270828;28;20241;-82
2024/02/10 23:05:02;;;;;;;15.90;11.73;;;;;9.90;98043.00;;;;10237325;28;20280;-85
2024/02/10 23:10:05;;;;;;;14.73;10.97;;;;;9.90;98046.00;;;;10234518;28;20271;-85
2024/02/10 23:15:13;;;;;;;13.37;9.73;;;;;9.90;98045.00;;;;10247499;28;20257;-86
2024/02/10 23:20:15;;;;;;;16.53;10.13;;;;;9.90;98048.00;;;;10228868;28;20240;-87
2024/02/10 23:25:17;;;;;;;14.90;10.37;;;;;9.90;98042.00;;;;10259110;28;20760;-75
2024/02/10 23:30:19;;;;;;;12.60;9.17;;;;;9.90;98038.00;;;;10261905;28;20221;-75
2024/02/10 23:35:21;;;;;;;12.40;9.10;;;;;9.90;98036.00;;;;10226824;28;20350;-75
2024/02/10 23:40:24;;;;;;;13.00;9.70;;;;;9.90;98041.00;;;;10249386;28;20695;-75
2024/02/10 23:45:26;;;;;;;16.20;9.23;;;;;9.90;98043.00;;;;10215186;28;20245;-75
2024/02/10 23:50:29;;;;;;;11.87;8.33;;;;;9.90;98043.00;;;;10231241;28;20308;-76
2024/02/10 23:55:33;;;;;;;10.03;8.13;;;;;9.90;98059.00;;;;10294315;28;20958;-75
